sensor_id;sensor_type;location;lat;lon;timestamp;temperature;humidity
26707;DHT22;14319;49.422;10.934;2024-03-22T00:00:56;7.30;99.90
26707;DHT22;14319;49.422;10.934;2024-03-22T00:02:56;7.10;99.90
26707;DHT22;14319;49.422;10.934;2024-03-22T00:04:57;7.20;99.90
26707;DHT22;14319;49.422;10.934;2024-03-22T00:06:57;7.30;99.90
26707;DHT22;14319;49.422;10.934;2024-03-22T00:08:58;7.40;99.90
26707;DHT22;14319;49.422;10.934;2024-03-22T00:10:59;7.50;99.90
26707;DHT22;14319;49.422;10.934;2024-03-22T00:12:59;7.40;99.90
26707;DHT22;14319;49.422;10.934;2024-03-22T00:15:00;7.40;99.90
26707;DHT22;14319;49.422;10.934;2024-03-22T00:17:00;7.40;99.90
26707;DHT22;14319;49.422;10.934;2024-03-22T00:19:01;7.40;99.90
26707;DHT22;14319;49.422;10.934;2024-03-22T00:21:02;7.40;99.90
26707;DHT22;14319;49.422;10.934;2024-03-22T00:23:03;7.20;99.90
26707;DHT22;14319;49.422;10.934;2024-03-22T00:25:04;7.10;99.90
26707;DHT22;14319;49.422;10.934;2024-03-22T00:27:06;7.00;99.90
26707;DHT22;14319;49.422;10.934;2024-03-22T00:29:07;7.10;99.90
26707;DHT22;14319;49.422;10.934;2024-03-22T00:31:08;7.20;99.90
26707;DHT22;14319;49.422;10.934;2024-03-22T00:33:09;7.10;99.90
26707;DHT22;14319;49.422;10.934;2024-03-22T00:35:10;7.00;99.90
26707;DHT22;14319;49.422;10.934;2024-03-22T00:37:11;7.00;99.90
26707;DHT22;14319;49.422;10.934;2024-03-22T00:39:12;7.00;99.90
26707;DHT22;14319;49.422;10.934;2024-03-22T00:41:13;7.00;99.90
26707;DHT22;14319;49.422;10.934;2024-03-22T00:43:13;7.00;99.90
26707;DHT22;14319;49.422;10.934;2024-03-22T00:45:14;7.00;99.90
26707;DHT22;14319;49.422;10.934;2024-03-22T00:47:15;7.00;99.90
26707;DHT22;14319;49.422;10.934;2024-03-22T00:49:15;7.00;99.90
26707;DHT22;14319;49.422;10.934;2024-03-22T00:51:16;6.90;99.90
26707;DHT22;14319;49.422;10.934;2024-03-22T00:53:16;6.90;99.90
26707;DHT22;14319;49.422;10.934;2024-03-22T00:55:17;6.80;99.90
26707;DHT22;14319;49.422;10.934;2024-03-22T00:57:18;6.80;99.90
26707;DHT22;14319;49.422;10.934;2024-03-22T00:59:18;6.70;99.90
26707;DHT22;14319;49.422;10.934;2024-03-22T01:01:19;6.80;99.90
26707;DHT22;14319;49.422;10.934;2024-03-22T01:03:19;6.60;99.90
26707;DHT22;14319;49.422;10.934;2024-03-22T01:05:20;6.00;99.90
26707;DHT22;14319;49.422;10.934;2024-03-22T01:07:21;6.10;99.90
26707;DHT22;14319;49.422;10.934;2024-03-22T01:09:21;6.10;99.90
26707;DHT22;14319;49.422;10.934;2024-03-22T01:11:23;6.20;99.90
26707;DHT22;14319;49.422;10.934;2024-03-22T01:13:24;6.40;99.90
26707;DHT22;14319;49.422;10.934;2024-03-22T01:15:24;6.50;99.90
26707;DHT22;14319;49.422;10.934;2024-03-22T01:17:25;6.50;99.90
26707;DHT22;14319;49.422;10.934;2024-03-22T01:19:25;6.50;99.90
26707;DHT22;14319;49.422;10.934;2024-03-22T01:21:26;6.50;99.90
26707;DHT22;14319;49.422;10.934;2024-03-22T01:23:27;6.00;99.90
26707;DHT22;14319;49.422;10.934;2024-03-22T01:25:28;5.80;99.90
26707;DHT22;14319;49.422;10.934;2024-03-22T01:27:28;5.80;99.90
26707;DHT22;14319;49.422;10.934;2024-03-22T01:29:29;5.90;99.90
26707;DHT22;14319;49.422;10.934;2024-03-22T01:31:31;6.00;99.90
26707;DHT22;14319;49.422;10.934;2024-03-22T01:33:32;6.10;99.90
26707;DHT22;14319;49.422;10.934;2024-03-22T01:35:33;6.10;99.90
26707;DHT22;14319;49.422;10.934;2024-03-22T01:37:33;6.10;99.90
26707;DHT22;14319;49.422;10.934;2024-03-22T01:39:34;6.10;99.90
26707;DHT22;14319;49.422;10.934;2024-03-22T01:41:34;6.10;99.90
26707;DHT22;14319;49.422;10.934;2024-03-22T01:43:35;6.20;99.90
26707;DHT22;14319;49.422;10.934;2024-03-22T01:45:36;6.10;99.90
26707;DHT22;14319;49.422;10.934;2024-03-22T01:47:37;6.20;99.90
26707;DHT22;14319;49.422;10.934;2024-03-22T01:49:38;6.30;99.90
26707;DHT22;14319;49.422;10.934;2024-03-22T01:51:39;6.30;99.90
26707;DHT22;14319;49.422;10.934;2024-03-22T01:53:41;6.40;99.90
26707;DHT22;14319;49.422;10.934;2024-03-22T01:55:42;6.20;99.70
26707;DHT22;14319;49.422;10.934;2024-03-22T01:57:45;6.00;99.90
26707;DHT22;14319;49.422;10.934;2024-03-22T01:59:49;6.10;99.90
26707;DHT22;14319;49.422;10.934;2024-03-22T02:01:52;6.20;99.90
26707;DHT22;14319;49.422;10.934;2024-03-22T02:03:52;6.30;99.90
26707;DHT22;14319;49.422;10.934;2024-03-22T02:05:53;6.40;99.90
26707;DHT22;14319;49.422;10.934;2024-03-22T02:07:54;6.50;99.90
26707;DHT22;14319;49.422;10.934;2024-03-22T02:09:54;6.50;99.90
26707;DHT22;14319;49.422;10.934;2024-03-22T02:11:55;6.50;99.90
26707;DHT22;14319;49.422;10.934;2024-03-22T02:13:56;6.60;99.90
26707;DHT22;14319;49.422;10.934;2024-03-22T02:15:56;6.60;99.90
26707;DHT22;14319;49.422;10.934;2024-03-22T02:17:57;6.60;99.90
26707;DHT22;14319;49.422;10.934;2024-03-22T02:19:59;6.60;99.90
26707;DHT22;14319;49.422;10.934;2024-03-22T02:21:59;6.20;99.00
26707;DHT22;14319;49.422;10.934;2024-03-22T02:24:00;6.00;99.90
26707;DHT22;14319;49.422;10.934;2024-03-22T02:26:01;5.90;99.90
26707;DHT22;14319;49.422;10.934;2024-03-22T02:28:02;5.80;99.90
26707;DHT22;14319;49.422;10.934;2024-03-22T02:30:03;5.40;99.90
26707;DHT22;14319;49.422;10.934;2024-03-22T02:32:06;5.50;99.90
26707;DHT22;14319;49.422;10.934;2024-03-22T02:34:07;5.70;99.90
26707;DHT22;14319;49.422;10.934;2024-03-22T02:36:08;5.50;98.60
26707;DHT22;14319;49.422;10.934;2024-03-22T02:38:09;5.50;99.90
26707;DHT22;14319;49.422;10.934;2024-03-22T02:40:10;5.60;99.90
26707;DHT22;14319;49.422;10.934;2024-03-22T02:42:11;5.80;99.90
26707;DHT22;14319;49.422;10.934;2024-03-22T02:44:11;5.90;99.90
26707;DHT22;14319;49.422;10.934;2024-03-22T02:46:12;5.50;97.30
26707;DHT22;14319;49.422;10.934;2024-03-22T02:48:13;5.50;99.90
26707;DHT22;14319;49.422;10.934;2024-03-22T02:50:13;5.50;99.90
26707;DHT22;14319;49.422;10.934;2024-03-22T02:52:14;5.60;99.80
26707;DHT22;14319;49.422;10.934;2024-03-22T02:54:15;5.60;99.90
26707;DHT22;14319;49.422;10.934;2024-03-22T02:56:15;5.70;99.90
26707;DHT22;14319;49.422;10.934;2024-03-22T02:58:17;5.70;99.90
26707;DHT22;14319;49.422;10.934;2024-03-22T03:00:18;5.70;99.00
26707;DHT22;14319;49.422;10.934;2024-03-22T03:02:18;5.70;99.90
26707;DHT22;14319;49.422;10.934;2024-03-22T03:04:19;5.80;99.90
26707;DHT22;14319;49.422;10.934;2024-03-22T03:06:19;5.70;99.10
26707;DHT22;14319;49.422;10.934;2024-03-22T03:08:20;5.70;99.10
26707;DHT22;14319;49.422;10.934;2024-03-22T03:10:21;5.60;98.80
26707;DHT22;14319;49.422;10.934;2024-03-22T03:12:21;5.60;99.90
26707;DHT22;14319;49.422;10.934;2024-03-22T03:14:22;5.60;99.00
26707;DHT22;14319;49.422;10.934;2024-03-22T03:16:22;5.60;99.90
26707;DHT22;14319;49.422;10.934;2024-03-22T03:18:23;5.70;99.90
26707;DHT22;14319;49.422;10.934;2024-03-22T03:20:24;5.70;99.90
26707;DHT22;14319;49.422;10.934;2024-03-22T03:22:26;5.60;99.70
26707;DHT22;14319;49.422;10.934;2024-03-22T03:24:26;5.30;97.80
26707;DHT22;14319;49.422;10.934;2024-03-22T03:26:27;5.30;99.80
26707;DHT22;14319;49.422;10.934;2024-03-22T03:28:27;5.20;97.60
26707;DHT22;14319;49.422;10.934;2024-03-22T03:30:28;4.90;97.10
26707;DHT22;14319;49.422;10.934;2024-03-22T03:32:29;4.80;99.90
26707;DHT22;14319;49.422;10.934;2024-03-22T03:34:29;5.00;99.90
26707;DHT22;14319;49.422;10.934;2024-03-22T03:36:30;5.20;99.90
26707;DHT22;14319;49.422;10.934;2024-03-22T03:38:30;5.20;98.10
26707;DHT22;14319;49.422;10.934;2024-03-22T03:40:31;5.20;97.50
26707;DHT22;14319;49.422;10.934;2024-03-22T03:42:32;5.00;96.70
26707;DHT22;14319;49.422;10.934;2024-03-22T03:44:32;4.80;98.50
26707;DHT22;14319;49.422;10.934;2024-03-22T03:46:33;4.80;99.20
26707;DHT22;14319;49.422;10.934;2024-03-22T03:48:33;4.80;99.50
26707;DHT22;14319;49.422;10.934;2024-03-22T03:50:34;5.00;99.90
26707;DHT22;14319;49.422;10.934;2024-03-22T03:52:34;5.00;99.20
26707;DHT22;14319;49.422;10.934;2024-03-22T03:54:35;5.10;99.90
26707;DHT22;14319;49.422;10.934;2024-03-22T03:56:36;5.30;99.80
26707;DHT22;14319;49.422;10.934;2024-03-22T03:58:36;5.30;98.50
26707;DHT22;14319;49.422;10.934;2024-03-22T04:00:37;5.10;98.00
26707;DHT22;14319;49.422;10.934;2024-03-22T04:02:37;5.10;99.70
26707;DHT22;14319;49.422;10.934;2024-03-22T04:04:39;5.00;97.80
26707;DHT22;14319;49.422;10.934;2024-03-22T04:06:39;4.90;97.10
26707;DHT22;14319;49.422;10.934;2024-03-22T04:08:40;4.80;97.40
26707;DHT22;14319;49.422;10.934;2024-03-22T04:10:40;4.90;98.70
26707;DHT22;14319;49.422;10.934;2024-03-22T04:12:41;4.90;99.00
26707;DHT22;14319;49.422;10.934;2024-03-22T04:14:42;5.00;99.20
26707;DHT22;14319;49.422;10.934;2024-03-22T04:16:42;4.90;98.20
26707;DHT22;14319;49.422;10.934;2024-03-22T04:18:43;4.90;99.10
26707;DHT22;14319;49.422;10.934;2024-03-22T04:20:56;4.90;99.90
26707;DHT22;14319;49.422;10.934;2024-03-22T04:22:57;5.20;99.90
26707;DHT22;14319;49.422;10.934;2024-03-22T04:24:57;5.10;98.20
26707;DHT22;14319;49.422;10.934;2024-03-22T04:26:58;5.00;99.10
26707;DHT22;14319;49.422;10.934;2024-03-22T04:28:59;5.10;99.50
26707;DHT22;14319;49.422;10.934;2024-03-22T04:31:04;5.10;98.50
26707;DHT22;14319;49.422;10.934;2024-03-22T04:33:05;5.00;97.40
26707;DHT22;14319;49.422;10.934;2024-03-22T04:35:06;5.10;98.80
26707;DHT22;14319;49.422;10.934;2024-03-22T04:37:06;5.00;98.80
26707;DHT22;14319;49.422;10.934;2024-03-22T04:39:07;4.90;98.60
26707;DHT22;14319;49.422;10.934;2024-03-22T04:41:09;5.00;99.90
26707;DHT22;14319;49.422;10.934;2024-03-22T04:43:10;4.90;99.20
26707;DHT22;14319;49.422;10.934;2024-03-22T04:45:10;4.60;98.30
26707;DHT22;14319;49.422;10.934;2024-03-22T04:47:11;4.70;99.90
26707;DHT22;14319;49.422;10.934;2024-03-22T04:49:12;4.70;98.80
26707;DHT22;14319;49.422;10.934;2024-03-22T04:51:12;4.80;99.30
26707;DHT22;14319;49.422;10.934;2024-03-22T04:53:13;4.70;95.90
26707;DHT22;14319;49.422;10.934;2024-03-22T04:55:14;4.60;97.20
26707;DHT22;14319;49.422;10.934;2024-03-22T04:57:14;4.70;98.70
26707;DHT22;14319;49.422;10.934;2024-03-22T04:59:15;4.80;98.50
26707;DHT22;14319;49.422;10.934;2024-03-22T05:01:15;4.80;98.80
26707;DHT22;14319;49.422;10.934;2024-03-22T05:03:16;4.80;97.70
26707;DHT22;14319;49.422;10.934;2024-03-22T05:05:17;4.90;98.40
26707;DHT22;14319;49.422;10.934;2024-03-22T05:07:17;4.90;98.20
26707;DHT22;14319;49.422;10.934;2024-03-22T05:09:18;4.90;97.00
26707;DHT22;14319;49.422;10.934;2024-03-22T05:11:18;4.70;96.40
26707;DHT22;14319;49.422;10.934;2024-03-22T05:13:19;4.80;99.00
26707;DHT22;14319;49.422;10.934;2024-03-22T05:15:19;4.90;98.60
26707;DHT22;14319;49.422;10.934;2024-03-22T05:17:20;4.90;99.20
26707;DHT22;14319;49.422;10.934;2024-03-22T05:19:21;5.00;99.40
26707;DHT22;14319;49.422;10.934;2024-03-22T05:21:21;5.10;99.80
26707;DHT22;14319;49.422;10.934;2024-03-22T05:23:22;5.00;98.80
26707;DHT22;14319;49.422;10.934;2024-03-22T05:25:22;5.00;98.40
26707;DHT22;14319;49.422;10.934;2024-03-22T05:27:23;5.00;99.50
26707;DHT22;14319;49.422;10.934;2024-03-22T05:29:24;4.90;98.30
26707;DHT22;14319;49.422;10.934;2024-03-22T05:31:24;5.00;99.20
26707;DHT22;14319;49.422;10.934;2024-03-22T05:33:25;5.10;99.60
26707;DHT22;14319;49.422;10.934;2024-03-22T05:35:27;5.10;99.10
26707;DHT22;14319;49.422;10.934;2024-03-22T05:37:27;5.00;98.70
26707;DHT22;14319;49.422;10.934;2024-03-22T05:39:29;5.00;98.90
26707;DHT22;14319;49.422;10.934;2024-03-22T05:41:29;4.90;99.60
26707;DHT22;14319;49.422;10.934;2024-03-22T05:43:32;4.90;99.90
26707;DHT22;14319;49.422;10.934;2024-03-22T05:45:33;5.00;99.90
26707;DHT22;14319;49.422;10.934;2024-03-22T05:47:33;5.00;99.90
26707;DHT22;14319;49.422;10.934;2024-03-22T05:49:34;5.00;99.50
26707;DHT22;14319;49.422;10.934;2024-03-22T05:51:34;4.90;98.70
26707;DHT22;14319;49.422;10.934;2024-03-22T05:53:35;4.90;99.20
26707;DHT22;14319;49.422;10.934;2024-03-22T05:55:36;4.90;99.40
26707;DHT22;14319;49.422;10.934;2024-03-22T05:57:36;4.90;99.90
26707;DHT22;14319;49.422;10.934;2024-03-22T05:59:37;5.00;99.90
26707;DHT22;14319;49.422;10.934;2024-03-22T06:01:38;5.10;99.90
26707;DHT22;14319;49.422;10.934;2024-03-22T06:03:39;5.20;99.90
26707;DHT22;14319;49.422;10.934;2024-03-22T06:05:39;5.20;99.60
26707;DHT22;14319;49.422;10.934;2024-03-22T06:07:40;5.10;99.90
26707;DHT22;14319;49.422;10.934;2024-03-22T06:09:42;5.00;99.50
26707;DHT22;14319;49.422;10.934;2024-03-22T06:11:52;5.00;99.80
26707;DHT22;14319;49.422;10.934;2024-03-22T06:13:52;4.90;99.90
26707;DHT22;14319;49.422;10.934;2024-03-22T06:15:53;4.90;99.90
26707;DHT22;14319;49.422;10.934;2024-03-22T06:17:54;4.90;99.90
26707;DHT22;14319;49.422;10.934;2024-03-22T06:19:54;5.00;99.90
26707;DHT22;14319;49.422;10.934;2024-03-22T06:21:55;5.10;99.90
26707;DHT22;14319;49.422;10.934;2024-03-22T06:23:56;5.10;99.90
26707;DHT22;14319;49.422;10.934;2024-03-22T06:25:57;5.30;99.90
26707;DHT22;14319;49.422;10.934;2024-03-22T06:27:58;5.20;98.80
26707;DHT22;14319;49.422;10.934;2024-03-22T06:29:58;5.10;99.90
26707;DHT22;14319;49.422;10.934;2024-03-22T06:31:59;5.00;99.90
26707;DHT22;14319;49.422;10.934;2024-03-22T06:33:59;4.90;99.90
26707;DHT22;14319;49.422;10.934;2024-03-22T06:36:02;4.80;99.90
26707;DHT22;14319;49.422;10.934;2024-03-22T06:38:04;4.70;99.90
26707;DHT22;14319;49.422;10.934;2024-03-22T06:40:06;4.60;99.90
26707;DHT22;14319;49.422;10.934;2024-03-22T06:42:07;4.60;99.90
26707;DHT22;14319;49.422;10.934;2024-03-22T06:44:07;4.50;99.90
26707;DHT22;14319;49.422;10.934;2024-03-22T06:46:09;4.40;99.90
26707;DHT22;14319;49.422;10.934;2024-03-22T06:48:10;4.30;99.90
26707;DHT22;14319;49.422;10.934;2024-03-22T06:50:11;4.40;99.90
26707;DHT22;14319;49.422;10.934;2024-03-22T06:52:11;4.50;99.90
26707;DHT22;14319;49.422;10.934;2024-03-22T06:54:12;4.70;99.90
26707;DHT22;14319;49.422;10.934;2024-03-22T06:56:13;4.70;99.90
26707;DHT22;14319;49.422;10.934;2024-03-22T06:58:13;4.70;99.90
26707;DHT22;14319;49.422;10.934;2024-03-22T07:00:14;4.70;99.90
26707;DHT22;14319;49.422;10.934;2024-03-22T07:02:15;4.90;99.90
26707;DHT22;14319;49.422;10.934;2024-03-22T07:04:16;5.10;99.90
26707;DHT22;14319;49.422;10.934;2024-03-22T07:06:16;5.20;99.90
26707;DHT22;14319;49.422;10.934;2024-03-22T07:08:17;5.30;99.90
26707;DHT22;14319;49.422;10.934;2024-03-22T07:10:18;5.40;99.90
26707;DHT22;14319;49.422;10.934;2024-03-22T07:12:18;5.60;99.90
26707;DHT22;14319;49.422;10.934;2024-03-22T07:14:19;5.60;99.90
26707;DHT22;14319;49.422;10.934;2024-03-22T07:16:19;5.50;99.90
26707;DHT22;14319;49.422;10.934;2024-03-22T07:18:20;5.60;99.90
26707;DHT22;14319;49.422;10.934;2024-03-22T07:20:21;5.60;99.90
26707;DHT22;14319;49.422;10.934;2024-03-22T07:22:22;5.60;99.90
26707;DHT22;14319;49.422;10.934;2024-03-22T07:24:23;5.80;99.90
26707;DHT22;14319;49.422;10.934;2024-03-22T07:26:24;5.90;99.90
26707;DHT22;14319;49.422;10.934;2024-03-22T07:28:25;6.00;99.90
26707;DHT22;14319;49.422;10.934;2024-03-22T07:30:25;6.10;99.90
26707;DHT22;14319;49.422;10.934;2024-03-22T07:32:26;6.10;99.90
26707;DHT22;14319;49.422;10.934;2024-03-22T07:34:27;6.20;99.90
26707;DHT22;14319;49.422;10.934;2024-03-22T07:36:27;6.40;99.90
26707;DHT22;14319;49.422;10.934;2024-03-22T07:38:28;6.30;99.90
26707;DHT22;14319;49.422;10.934;2024-03-22T07:40:28;6.50;99.90
26707;DHT22;14319;49.422;10.934;2024-03-22T07:42:29;6.40;99.90
26707;DHT22;14319;49.422;10.934;2024-03-22T07:44:30;6.50;99.90
26707;DHT22;14319;49.422;10.934;2024-03-22T07:46:31;6.60;99.90
26707;DHT22;14319;49.422;10.934;2024-03-22T07:48:32;6.70;99.90
26707;DHT22;14319;49.422;10.934;2024-03-22T07:50:32;6.80;99.90
26707;DHT22;14319;49.422;10.934;2024-03-22T07:52:33;7.00;99.90
26707;DHT22;14319;49.422;10.934;2024-03-22T07:54:33;7.20;99.90
26707;DHT22;14319;49.422;10.934;2024-03-22T07:56:34;7.30;99.90
26707;DHT22;14319;49.422;10.934;2024-03-22T07:58:35;7.40;99.90
26707;DHT22;14319;49.422;10.934;2024-03-22T08:00:35;7.50;99.90
26707;DHT22;14319;49.422;10.934;2024-03-22T08:02:36;7.60;99.90
26707;DHT22;14319;49.422;10.934;2024-03-22T08:04:36;7.70;99.90
26707;DHT22;14319;49.422;10.934;2024-03-22T08:06:37;7.70;99.90
26707;DHT22;14319;49.422;10.934;2024-03-22T08:08:38;7.80;99.90
26707;DHT22;14319;49.422;10.934;2024-03-22T08:10:38;7.90;99.90
26707;DHT22;14319;49.422;10.934;2024-03-22T08:12:39;7.90;99.90
26707;DHT22;14319;49.422;10.934;2024-03-22T08:14:39;8.00;99.90
26707;DHT22;14319;49.422;10.934;2024-03-22T08:16:42;8.00;99.90
26707;DHT22;14319;49.422;10.934;2024-03-22T08:18:42;8.10;99.90
26707;DHT22;14319;49.422;10.934;2024-03-22T08:20:43;8.10;99.90
26707;DHT22;14319;49.422;10.934;2024-03-22T08:22:44;8.20;99.90
26707;DHT22;14319;49.422;10.934;2024-03-22T08:24:44;8.30;99.90
26707;DHT22;14319;49.422;10.934;2024-03-22T08:26:45;8.30;99.90
26707;DHT22;14319;49.422;10.934;2024-03-22T08:28:47;8.40;99.90
26707;DHT22;14319;49.422;10.934;2024-03-22T08:30:48;8.40;99.90
26707;DHT22;14319;49.422;10.934;2024-03-22T08:32:49;8.40;99.90
26707;DHT22;14319;49.422;10.934;2024-03-22T08:34:49;8.50;99.90
26707;DHT22;14319;49.422;10.934;2024-03-22T08:36:50;8.50;99.90
26707;DHT22;14319;49.422;10.934;2024-03-22T08:38:51;8.60;99.80
26707;DHT22;14319;49.422;10.934;2024-03-22T08:40:51;8.60;99.10
26707;DHT22;14319;49.422;10.934;2024-03-22T08:42:52;8.60;99.90
26707;DHT22;14319;49.422;10.934;2024-03-22T08:44:52;8.60;99.90
26707;DHT22;14319;49.422;10.934;2024-03-22T08:46:53;8.50;99.90
26707;DHT22;14319;49.422;10.934;2024-03-22T08:48:54;8.50;99.90
26707;DHT22;14319;49.422;10.934;2024-03-22T08:50:54;8.50;99.90
26707;DHT22;14319;49.422;10.934;2024-03-22T08:52:55;8.40;99.90
26707;DHT22;14319;49.422;10.934;2024-03-22T08:54:56;8.50;99.90
26707;DHT22;14319;49.422;10.934;2024-03-22T08:56:56;8.50;99.90
26707;DHT22;14319;49.422;10.934;2024-03-22T08:58:57;8.50;99.90
26707;DHT22;14319;49.422;10.934;2024-03-22T09:00:57;8.50;99.90
26707;DHT22;14319;49.422;10.934;2024-03-22T09:02:58;8.60;99.90
26707;DHT22;14319;49.422;10.934;2024-03-22T09:04:59;8.70;99.90
26707;DHT22;14319;49.422;10.934;2024-03-22T09:06:59;8.90;99.90
26707;DHT22;14319;49.422;10.934;2024-03-22T09:09:00;9.00;99.90
26707;DHT22;14319;49.422;10.934;2024-03-22T09:11:00;9.10;99.90
26707;DHT22;14319;49.422;10.934;2024-03-22T09:13:01;9.30;99.90
26707;DHT22;14319;49.422;10.934;2024-03-22T09:15:02;9.30;99.90
26707;DHT22;14319;49.422;10.934;2024-03-22T09:17:02;9.30;99.90
26707;DHT22;14319;49.422;10.934;2024-03-22T09:19:03;9.40;99.90
26707;DHT22;14319;49.422;10.934;2024-03-22T09:21:04;9.60;99.90
26707;DHT22;14319;49.422;10.934;2024-03-22T09:23:04;9.70;99.90
26707;DHT22;14319;49.422;10.934;2024-03-22T09:25:06;9.80;99.90
26707;DHT22;14319;49.422;10.934;2024-03-22T09:27:07;9.90;99.20
26707;DHT22;14319;49.422;10.934;2024-03-22T09:29:10;10.00;98.60
26707;DHT22;14319;49.422;10.934;2024-03-22T09:31:13;10.10;98.50
26707;DHT22;14319;49.422;10.934;2024-03-22T09:33:14;10.30;98.90
26707;DHT22;14319;49.422;10.934;2024-03-22T09:35:15;10.80;94.70
26707;DHT22;14319;49.422;10.934;2024-03-22T09:37:15;10.90;93.60
26707;DHT22;14319;49.422;10.934;2024-03-22T09:39:16;11.00;91.60
26707;DHT22;14319;49.422;10.934;2024-03-22T09:41:23;11.30;89.40
26707;DHT22;14319;49.422;10.934;2024-03-22T09:43:27;11.40;89.80
26707;DHT22;14319;49.422;10.934;2024-03-22T09:45:28;11.60;89.20
26707;DHT22;14319;49.422;10.934;2024-03-22T09:47:29;11.80;86.20
26707;DHT22;14319;49.422;10.934;2024-03-22T09:49:29;11.90;88.50
26707;DHT22;14319;49.422;10.934;2024-03-22T09:51:31;12.10;87.60
26707;DHT22;14319;49.422;10.934;2024-03-22T09:53:32;12.20;86.90
26707;DHT22;14319;49.422;10.934;2024-03-22T09:55:32;12.40;85.40
26707;DHT22;14319;49.422;10.934;2024-03-22T09:57:38;12.40;84.30
26707;DHT22;14319;49.422;10.934;2024-03-22T09:59:39;12.60;83.80
26707;DHT22;14319;49.422;10.934;2024-03-22T10:01:41;12.60;82.80
26707;DHT22;14319;49.422;10.934;2024-03-22T10:03:43;12.70;83.90
26707;DHT22;14319;49.422;10.934;2024-03-22T10:05:44;12.70;84.40
26707;DHT22;14319;49.422;10.934;2024-03-22T10:07:45;12.70;81.70
26707;DHT22;14319;49.422;10.934;2024-03-22T10:09:46;12.80;82.00
26707;DHT22;14319;49.422;10.934;2024-03-22T10:11:46;12.80;82.40
26707;DHT22;14319;49.422;10.934;2024-03-22T10:15:53;12.80;84.10
26707;DHT22;14319;49.422;10.934;2024-03-22T10:17:56;12.90;86.30
26707;DHT22;14319;49.422;10.934;2024-03-22T10:19:57;13.10;83.60
26707;DHT22;14319;49.422;10.934;2024-03-22T10:22:04;13.30;84.70
26707;DHT22;14319;49.422;10.934;2024-03-22T10:24:08;13.50;80.90
26707;DHT22;14319;49.422;10.934;2024-03-22T10:26:09;13.60;79.20
26707;DHT22;14319;49.422;10.934;2024-03-22T10:28:10;13.50;77.80
26707;DHT22;14319;49.422;10.934;2024-03-22T10:30:12;13.60;81.50
26707;DHT22;14319;49.422;10.934;2024-03-22T10:32:16;13.60;72.90
26707;DHT22;14319;49.422;10.934;2024-03-22T10:34:17;13.60;75.30
26707;DHT22;14319;49.422;10.934;2024-03-22T10:36:20;13.60;77.30
26707;DHT22;14319;49.422;10.934;2024-03-22T10:38:21;13.60;75.40
26707;DHT22;14319;49.422;10.934;2024-03-22T10:40:22;13.60;77.70
26707;DHT22;14319;49.422;10.934;2024-03-22T10:42:23;13.60;79.20
26707;DHT22;14319;49.422;10.934;2024-03-22T10:44:24;13.60;72.40
26707;DHT22;14319;49.422;10.934;2024-03-22T10:46:29;13.70;70.70
26707;DHT22;14319;49.422;10.934;2024-03-22T10:48:30;13.70;66.00
26707;DHT22;14319;49.422;10.934;2024-03-22T10:50:33;13.70;70.10
26707;DHT22;14319;49.422;10.934;2024-03-22T10:52:39;13.70;71.50
26707;DHT22;14319;49.422;10.934;2024-03-22T10:54:43;13.70;69.50
26707;DHT22;14319;49.422;10.934;2024-03-22T10:56:49;13.80;70.30
26707;DHT22;14319;49.422;10.934;2024-03-22T10:58:50;13.80;74.40
26707;DHT22;14319;49.422;10.934;2024-03-22T11:00:53;13.90;74.20
26707;DHT22;14319;49.422;10.934;2024-03-22T11:02:56;14.00;75.40
26707;DHT22;14319;49.422;10.934;2024-03-22T11:04:57;14.00;77.50
26707;DHT22;14319;49.422;10.934;2024-03-22T11:06:58;14.00;71.50
26707;DHT22;14319;49.422;10.934;2024-03-22T11:09:00;14.00;71.00
26707;DHT22;14319;49.422;10.934;2024-03-22T11:11:11;14.10;74.80
26707;DHT22;14319;49.422;10.934;2024-03-22T11:13:11;14.10;76.00
26707;DHT22;14319;49.422;10.934;2024-03-22T11:15:12;14.10;71.50
26707;DHT22;14319;49.422;10.934;2024-03-22T11:17:13;14.20;70.70
26707;DHT22;14319;49.422;10.934;2024-03-22T11:19:15;14.20;70.90
26707;DHT22;14319;49.422;10.934;2024-03-22T11:21:16;14.20;68.60
26707;DHT22;14319;49.422;10.934;2024-03-22T11:23:16;14.30;69.70
26707;DHT22;14319;49.422;10.934;2024-03-22T11:25:18;14.30;71.20
26707;DHT22;14319;49.422;10.934;2024-03-22T11:27:19;14.50;69.40
26707;DHT22;14319;49.422;10.934;2024-03-22T11:29:20;14.40;68.30
26707;DHT22;14319;49.422;10.934;2024-03-22T11:31:22;14.50;70.40
26707;DHT22;14319;49.422;10.934;2024-03-22T11:33:27;14.50;68.80
26707;DHT22;14319;49.422;10.934;2024-03-22T11:35:30;14.50;69.30
26707;DHT22;14319;49.422;10.934;2024-03-22T11:37:31;14.50;73.30
26707;DHT22;14319;49.422;10.934;2024-03-22T11:39:33;14.60;72.10
26707;DHT22;14319;49.422;10.934;2024-03-22T11:41:35;14.70;73.60
26707;DHT22;14319;49.422;10.934;2024-03-22T11:43:36;14.70;69.70
26707;DHT22;14319;49.422;10.934;2024-03-22T11:45:37;14.70;71.80
26707;DHT22;14319;49.422;10.934;2024-03-22T11:47:38;14.70;72.00
26707;DHT22;14319;49.422;10.934;2024-03-22T11:49:38;14.80;73.00
26707;DHT22;14319;49.422;10.934;2024-03-22T11:51:40;14.80;71.30
26707;DHT22;14319;49.422;10.934;2024-03-22T11:53:49;14.80;74.30
26707;DHT22;14319;49.422;10.934;2024-03-22T11:55:49;14.80;72.50
26707;DHT22;14319;49.422;10.934;2024-03-22T11:57:50;14.80;72.30
26707;DHT22;14319;49.422;10.934;2024-03-22T11:59:52;15.00;71.50
26707;DHT22;14319;49.422;10.934;2024-03-22T12:01:58;15.00;70.90
26707;DHT22;14319;49.422;10.934;2024-03-22T12:04:00;14.90;74.70
26707;DHT22;14319;49.422;10.934;2024-03-22T12:06:01;14.90;72.80
26707;DHT22;14319;49.422;10.934;2024-03-22T12:08:04;14.90;70.40
26707;DHT22;14319;49.422;10.934;2024-03-22T12:10:05;14.90;70.90
26707;DHT22;14319;49.422;10.934;2024-03-22T12:12:08;14.90;70.70
26707;DHT22;14319;49.422;10.934;2024-03-22T12:14:09;14.90;72.90
26707;DHT22;14319;49.422;10.934;2024-03-22T12:16:10;15.00;69.50
26707;DHT22;14319;49.422;10.934;2024-03-22T12:18:10;15.10;69.50
26707;DHT22;14319;49.422;10.934;2024-03-22T12:20:11;15.10;72.20
26707;DHT22;14319;49.422;10.934;2024-03-22T12:22:12;15.10;69.00
26707;DHT22;14319;49.422;10.934;2024-03-22T12:24:12;15.20;68.20
26707;DHT22;14319;49.422;10.934;2024-03-22T12:26:13;15.20;66.20
26707;DHT22;14319;49.422;10.934;2024-03-22T12:28:14;15.30;67.90
26707;DHT22;14319;49.422;10.934;2024-03-22T12:30:15;15.30;67.50
26707;DHT22;14319;49.422;10.934;2024-03-22T12:32:16;15.30;69.00
26707;DHT22;14319;49.422;10.934;2024-03-22T12:34:16;15.50;67.70
26707;DHT22;14319;49.422;10.934;2024-03-22T12:36:17;15.50;66.70
26707;DHT22;14319;49.422;10.934;2024-03-22T12:38:18;15.50;68.90
26707;DHT22;14319;49.422;10.934;2024-03-22T12:40:18;15.50;68.50
26707;DHT22;14319;49.422;10.934;2024-03-22T12:42:20;15.50;68.20
26707;DHT22;14319;49.422;10.934;2024-03-22T12:44:21;15.50;68.60